Time;durP1;ratioP1;P1;durP2;ratioP2;P2;SDS_P1;SDS_P2;PMS_P1;PMS_P2;Temp;Humidity;BMP_temperature;BMP_pressure;BME280_temperature;BME280_humidity;BME280_pressure;Samples;Min_cycle;Max_cycle;Signal;HPM_P1;HPM_P2
2022/03/28 00:01:31;;;;;;;16.63;12.02;;;;;;;;;;5059723;28;20173;-80
2022/03/28 00:03:57;;;;;;;15.20;11.75;;;;;;;;;;5042528;28;20043;-80
2022/03/28 00:06:22;;;;;;;16.55;12.55;;;;;;;;;;5059400;28;20048;-80
2022/03/28 00:08:49;;;;;;;14.55;10.40;;;;;;;;;;5059196;28;20391;-80
2022/03/28 00:11:14;;;;;;;15.70;11.52;;;;;;;;;;5059699;28;20039;-80
2022/03/28 00:13:40;;;;;;;16.90;12.50;;;;;;;;;;5059775;28;20040;-80
2022/03/28 00:16:05;;;;;;;15.98;12.15;;;;;;;;;;5042272;28;20040;-80
2022/03/28 00:18:31;;;;;;;16.48;12.20;;;;;;;;;;5059182;28;20052;-80
2022/03/28 00:20:56;;;;;;;15.23;11.77;;;;;;;;;;5058967;28;20024;-80
2022/03/28 00:23:22;;;;;;;16.63;12.43;;;;;;;;;;5058766;28;20387;-80
2022/03/28 00:25:48;;;;;;;18.25;13.25;;;;;;;;;;5059296;28;20032;-80
2022/03/28 00:28:14;;;;;;;16.35;12.55;;;;;;;;;;5042536;28;20087;-80
2022/03/28 00:30:39;;;;;;;16.75;12.38;;;;;;;;;;5059174;28;20032;-80
2022/03/28 00:33:05;;;;;;;15.20;12.57;;;;;;;;;;5058671;28;20032;-80
2022/03/28 00:35:31;;;;;;;16.95;12.85;;;;;;;;;;5075851;28;20046;-80
2022/03/28 00:37:56;;;;;;;14.65;11.20;;;;;;;;;;5058403;28;20028;-80
2022/03/28 00:40:22;;;;;;;16.20;12.75;;;;;;;;;;5050706;28;20791;-80
2022/03/28 00:42:48;;;;;;;16.88;13.60;;;;;;;;;;5059261;28;20136;-80
2022/03/28 00:45:14;;;;;;;16.15;12.18;;;;;;;;;;5075181;28;20036;-80
2022/03/28 00:47:39;;;;;;;18.02;13.18;;;;;;;;;;5058144;28;20414;-80
2022/03/28 00:50:05;;;;;;;17.63;13.27;;;;;;;;;;5058157;28;20059;-80
2022/03/28 00:52:31;;;;;;;16.95;12.20;;;;;;;;;;5075112;28;20035;-80
2022/03/28 00:54:57;;;;;;;18.90;14.45;;;;;;;;;;5075151;28;20438;-80
2022/03/28 00:57:23;;;;;;;17.25;13.73;;;;;;;;;;5061787;28;20088;-80
2022/03/28 00:59:48;;;;;;;16.05;12.38;;;;;;;;;;5069398;28;20032;-80
2022/03/28 01:02:14;;;;;;;17.52;13.82;;;;;;;;;;5061315;28;20040;-80
2022/03/28 01:04:39;;;;;;;16.70;12.68;;;;;;;;;;5078064;28;20027;-80
2022/03/28 01:07:06;;;;;;;16.25;13.20;;;;;;;;;;5078658;28;20106;-80
2022/03/28 01:09:32;;;;;;;16.52;12.85;;;;;;;;;;5078503;28;20031;-80
2022/03/28 01:11:58;;;;;;;15.57;12.40;;;;;;;;;;5095065;28;20043;-80
2022/03/28 01:14:25;;;;;;;16.08;12.60;;;;;;;;;;5058320;28;20080;-80
2022/03/28 01:19:34;;;;;;;16.67;13.18;;;;;;;;;;5091606;28;20036;-80
2022/03/28 01:22:00;;;;;;;16.13;13.38;;;;;;;;;;5091514;28;20069;-80
2022/03/28 01:24:25;;;;;;;18.08;14.23;;;;;;;;;;5106773;28;20031;-80
2022/03/28 01:26:51;;;;;;;15.70;12.77;;;;;;;;;;5061234;28;20501;-80
2022/03/28 01:29:17;;;;;;;17.58;13.45;;;;;;;;;;5078248;28;20051;-80
2022/03/28 01:31:42;;;;;;;18.20;13.85;;;;;;;;;;5060564;28;20067;-80
2022/03/28 01:34:15;;;;;;;16.05;13.02;;;;;;;;;;5077886;28;20077;-80
2022/03/28 01:36:44;;;;;;;15.30;12.60;;;;;;;;;;5060947;28;20501;-80
2022/03/28 01:39:10;;;;;;;16.67;13.10;;;;;;;;;;5061939;28;20035;-80
2022/03/28 01:41:35;;;;;;;17.10;13.52;;;;;;;;;;5111368;28;20043;-80
2022/03/28 01:44:01;;;;;;;17.05;13.70;;;;;;;;;;5077706;28;20031;-80
2022/03/28 01:46:26;;;;;;;17.45;13.13;;;;;;;;;;5060502;28;20039;-80
2022/03/28 01:48:51;;;;;;;17.63;13.82;;;;;;;;;;5077437;28;20066;-80
2022/03/28 01:51:17;;;;;;;17.05;12.93;;;;;;;;;;5060855;28;20401;-80
2022/03/28 01:53:42;;;;;;;16.75;13.35;;;;;;;;;;5060583;28;20028;-80
2022/03/28 01:56:08;;;;;;;17.27;13.15;;;;;;;;;;5077495;28;20435;-80
2022/03/28 01:58:39;;;;;;;15.82;12.95;;;;;;;;;;5057895;28;20067;-80
2022/03/28 02:01:07;;;;;;;17.23;13.68;;;;;;;;;;5062332;28;20031;-80
2022/03/28 02:03:33;;;;;;;19.23;13.75;;;;;;;;;;5077612;28;20038;-80
2022/03/28 02:05:58;;;;;;;16.67;12.98;;;;;;;;;;5077137;28;20039;-79
2022/03/28 02:08:24;;;;;;;17.27;14.32;;;;;;;;;;5077320;28;20040;-79
2022/03/28 02:10:49;;;;;;;15.60;13.10;;;;;;;;;;5077312;28;20531;-80
2022/03/28 02:13:15;;;;;;;17.30;14.00;;;;;;;;;;5076185;28;20036;-80
2022/03/28 02:15:40;;;;;;;18.15;13.68;;;;;;;;;;5056732;28;20394;-80
2022/03/28 02:18:05;;;;;;;17.35;13.55;;;;;;;;;;5056938;28;20448;-80
2022/03/28 02:20:31;;;;;;;18.48;14.30;;;;;;;;;;5057185;28;20487;-80
2022/03/28 02:22:56;;;;;;;17.55;13.52;;;;;;;;;;5056669;28;20046;-80
2022/03/28 02:25:22;;;;;;;19.10;14.88;;;;;;;;;;5056734;28;20123;-79
2022/03/28 02:27:47;;;;;;;17.90;13.10;;;;;;;;;;5056880;28;20043;-79
2022/03/28 02:30:14;;;;;;;18.40;14.82;;;;;;;;;;5057303;28;20066;-79
2022/03/28 02:32:39;;;;;;;17.17;13.93;;;;;;;;;;5057356;28;20039;-79
2022/03/28 02:35:06;;;;;;;18.85;13.48;;;;;;;;;;5073439;28;20056;-79
2022/03/28 02:37:31;;;;;;;18.85;14.32;;;;;;;;;;5056714;28;20032;-79
2022/03/28 02:39:57;;;;;;;17.85;13.63;;;;;;;;;;5066374;28;20032;-80
2022/03/28 02:42:22;;;;;;;15.38;13.30;;;;;;;;;;5060102;28;20425;-80
2022/03/28 02:44:49;;;;;;;20.05;13.88;;;;;;;;;;5060368;28;20058;-79
2022/03/28 02:47:18;;;;;;;18.45;14.27;;;;;;;;;;5093662;28;20038;-80
2022/03/28 02:49:43;;;;;;;17.77;13.68;;;;;;;;;;5077341;28;20524;-80
2022/03/28 02:52:09;;;;;;;16.17;13.55;;;;;;;;;;5076857;28;20036;-80
2022/03/28 02:54:34;;;;;;;18.45;12.88;;;;;;;;;;5076319;28;20035;-80
2022/03/28 02:57:00;;;;;;;17.45;13.65;;;;;;;;;;5072980;28;20055;-80
2022/03/28 02:59:25;;;;;;;19.60;14.75;;;;;;;;;;5080906;28;20028;-80
2022/03/28 03:01:51;;;;;;;16.60;13.35;;;;;;;;;;5060412;28;20038;-80
2022/03/28 03:04:17;;;;;;;15.43;12.88;;;;;;;;;;5097736;28;20081;-79
2022/03/28 03:06:42;;;;;;;18.33;14.32;;;;;;;;;;5080548;28;20048;-80
2022/03/28 03:09:08;;;;;;;17.92;13.75;;;;;;;;;;5080882;28;20401;-80
2022/03/28 03:11:33;;;;;;;17.85;14.05;;;;;;;;;;5080061;28;20039;-80
2022/03/28 03:13:59;;;;;;;17.95;14.20;;;;;;;;;;5080632;28;20105;-80
2022/03/28 03:16:24;;;;;;;17.27;13.40;;;;;;;;;;5063753;28;20101;-79
2022/03/28 03:18:50;;;;;;;17.95;14.07;;;;;;;;;;5080560;28;20043;-80
2022/03/28 03:21:15;;;;;;;16.73;13.00;;;;;;;;;;5063984;28;20425;-80
2022/03/28 03:23:41;;;;;;;18.02;13.75;;;;;;;;;;5097087;28;20036;-80
2022/03/28 03:26:06;;;;;;;15.20;12.65;;;;;;;;;;5063289;28;20027;-79
2022/03/28 03:28:32;;;;;;;16.50;13.90;;;;;;;;;;5080118;28;20092;-79
2022/03/28 03:30:57;;;;;;;16.15;13.00;;;;;;;;;;5080075;28;20190;-80
2022/03/28 03:33:22;;;;;;;16.85;13.82;;;;;;;;;;5080159;28;20409;-80
2022/03/28 03:35:48;;;;;;;18.08;14.07;;;;;;;;;;5079873;28;20443;-79
2022/03/28 03:38:13;;;;;;;18.42;13.32;;;;;;;;;;5079607;28;20397;-80
2022/03/28 03:40:39;;;;;;;16.85;13.25;;;;;;;;;;5062625;28;20032;-80
2022/03/28 03:43:04;;;;;;;16.55;13.23;;;;;;;;;;5097350;28;20513;-80
2022/03/28 03:45:30;;;;;;;17.17;13.30;;;;;;;;;;5096562;28;20050;-79
2022/03/28 03:47:56;;;;;;;15.38;12.43;;;;;;;;;;5079712;28;20085;-80
2022/03/28 03:50:21;;;;;;;15.18;12.50;;;;;;;;;;5079776;28;20067;-80
2022/03/28 03:52:47;;;;;;;16.38;13.23;;;;;;;;;;5080053;28;20508;-80
2022/03/28 03:55:13;;;;;;;14.60;12.52;;;;;;;;;;5096514;28;20489;-80
2022/03/28 03:57:39;;;;;;;15.30;13.70;;;;;;;;;;5093452;28;20032;-79
2022/03/28 04:00:05;;;;;;;16.80;13.15;;;;;;;;;;5089541;28;20043;-80
2022/03/28 04:02:30;;;;;;;15.23;12.32;;;;;;;;;;5062706;28;20051;-79
2022/03/28 04:04:55;;;;;;;17.25;13.32;;;;;;;;;;5079504;28;20458;-80
2022/03/28 04:07:21;;;;;;;16.35;12.52;;;;;;;;;;5079384;28;20393;-80
2022/03/28 04:09:46;;;;;;;17.50;12.98;;;;;;;;;;5079146;28;20035;-80
2022/03/28 04:12:14;;;;;;;16.90;13.88;;;;;;;;;;5079383;28;20038;-80
2022/03/28 04:14:39;;;;;;;15.82;12.20;;;;;;;;;;5077962;28;20031;-80
2022/03/28 04:17:05;;;;;;;15.02;12.60;;;;;;;;;;5079210;28;20088;-80
2022/03/28 04:19:30;;;;;;;15.38;12.35;;;;;;;;;;5079165;28;20028;-80
2022/03/28 04:21:55;;;;;;;17.05;13.68;;;;;;;;;;5062599;28;20131;-80
2022/03/28 04:24:22;;;;;;;15.70;12.73;;;;;;;;;;5058443;28;20036;-80
2022/03/28 04:26:47;;;;;;;16.08;13.30;;;;;;;;;;5042654;28;20028;-80
2022/03/28 04:29:13;;;;;;;16.48;12.68;;;;;;;;;;5059197;28;20047;-81
2022/03/28 04:31:40;;;;;;;15.98;12.52;;;;;;;;;;5042374;28;20054;-80
2022/03/28 04:34:09;;;;;;;15.32;12.70;;;;;;;;;;5075753;28;20036;-80
2022/03/28 04:36:35;;;;;;;14.65;11.80;;;;;;;;;;5042514;28;20035;-80
2022/03/28 04:39:00;;;;;;;15.30;12.38;;;;;;;;;;5076719;28;20506;-80
2022/03/28 04:41:26;;;;;;;16.02;12.48;;;;;;;;;;5062225;28;20035;-80
2022/03/28 04:43:51;;;;;;;13.63;11.73;;;;;;;;;;5060793;28;20027;-80
2022/03/28 04:46:17;;;;;;;16.27;12.35;;;;;;;;;;5078604;28;20042;-80
2022/03/28 04:48:42;;;;;;;14.23;11.85;;;;;;;;;;5095546;28;20390;-80
2022/03/28 04:51:08;;;;;;;14.02;12.10;;;;;;;;;;5078724;28;20054;-80
2022/03/28 04:53:34;;;;;;;15.07;11.68;;;;;;;;;;5094874;28;20405;-80
2022/03/28 04:55:59;;;;;;;15.38;12.85;;;;;;;;;;5095867;28;20039;-80
2022/03/28 04:58:25;;;;;;;15.05;11.23;;;;;;;;;;5078214;28;20031;-80
2022/03/28 05:00:51;;;;;;;15.05;12.65;;;;;;;;;;5091824;28;20433;-80
2022/03/28 05:03:17;;;;;;;15.30;11.40;;;;;;;;;;5075315;28;20123;-80
2022/03/28 05:05:42;;;;;;;13.90;11.52;;;;;;;;;;5058333;28;20070;-80
2022/03/28 05:08:08;;;;;;;14.48;12.15;;;;;;;;;;5057679;28;20062;-80
2022/03/28 05:10:33;;;;;;;15.77;12.52;;;;;;;;;;5074946;28;20040;-81
2022/03/28 05:12:58;;;;;;;100.40;24.23;;;;;;;;;;5041634;28;20402;-83
2022/03/28 05:15:24;;;;;;;46.08;14.20;;;;;;;;;;5074320;28;20123;-80
2022/03/28 05:17:49;;;;;;;31.15;13.05;;;;;;;;;;5055984;28;20032;-80
2022/03/28 05:20:15;;;;;;;25.80;13.02;;;;;;;;;;5055666;28;20040;-80
2022/03/28 05:22:40;;;;;;;26.98;12.68;;;;;;;;;;5056814;28;20040;-80
2022/03/28 05:25:07;;;;;;;22.50;11.95;;;;;;;;;;5076915;28;20417;-80
2022/03/28 05:27:41;;;;;;;18.27;12.35;;;;;;;;;;5078086;28;20066;-80
2022/03/28 05:30:06;;;;;;;21.25;12.27;;;;;;;;;;5078309;28;20049;-80
2022/03/28 05:32:32;;;;;;;24.20;12.13;;;;;;;;;;5094766;28;20035;-78
2022/03/28 05:34:57;;;;;;;17.52;12.02;;;;;;;;;;5078011;28;20533;-78
2022/03/28 05:37:23;;;;;;;17.52;11.93;;;;;;;;;;5094255;28;20044;-79
2022/03/28 05:39:48;;;;;;;16.35;12.02;;;;;;;;;;5077592;28;20401;-78
2022/03/28 05:42:14;;;;;;;15.85;11.25;;;;;;;;;;5077812;28;20043;-78
2022/03/28 05:44:41;;;;;;;17.45;12.18;;;;;;;;;;5078063;28;20109;-77
2022/03/28 05:47:06;;;;;;;19.75;11.27;;;;;;;;;;5111235;28;20482;-77
2022/03/28 05:49:32;;;;;;;25.15;12.85;;;;;;;;;;5077714;28;20134;-77
2022/03/28 05:51:57;;;;;;;20.25;11.75;;;;;;;;;;5093713;28;20038;-77
2022/03/28 05:54:23;;;;;;;30.58;12.35;;;;;;;;;;5077119;28;20035;-77
2022/03/28 05:56:48;;;;;;;22.85;12.68;;;;;;;;;;5110896;28;20035;-77
2022/03/28 05:59:14;;;;;;;22.35;13.13;;;;;;;;;;5090709;28;20161;-77
2022/03/28 06:01:39;;;;;;;26.42;14.20;;;;;;;;;;5057205;28;20047;-77
2022/03/28 06:04:05;;;;;;;23.85;12.85;;;;;;;;;;5057197;28;20127;-77
2022/03/28 06:06:31;;;;;;;18.65;12.63;;;;;;;;;;5073463;28;20152;-77
2022/03/28 06:08:57;;;;;;;23.50;14.35;;;;;;;;;;5073786;28;20043;-77
2022/03/28 06:11:22;;;;;;;23.98;14.93;;;;;;;;;;5056979;28;20039;-77
2022/03/28 06:13:48;;;;;;;25.33;14.38;;;;;;;;;;5073845;28;20032;-77
2022/03/28 06:16:13;;;;;;;22.15;14.25;;;;;;;;;;5056908;28;20115;-77
2022/03/28 06:18:39;;;;;;;22.80;13.95;;;;;;;;;;5073821;28;20129;-76
2022/03/28 06:21:04;;;;;;;23.63;14.43;;;;;;;;;;5057001;28;20137;-77
2022/03/28 06:23:30;;;;;;;22.10;14.07;;;;;;;;;;5056711;28;20152;-76
2022/03/28 06:25:56;;;;;;;27.38;15.32;;;;;;;;;;5073899;28;20047;-77
2022/03/28 06:28:21;;;;;;;19.60;13.35;;;;;;;;;;5090427;28;20514;-76
2022/03/28 06:30:47;;;;;;;24.88;14.85;;;;;;;;;;5056960;28;20036;-77
2022/03/28 06:33:13;;;;;;;20.10;13.98;;;;;;;;;;5090588;28;20524;-77
2022/03/28 06:35:41;;;;;;;20.70;14.15;;;;;;;;;;5073520;28;20036;-76
2022/03/28 06:38:07;;;;;;;25.17;14.10;;;;;;;;;;5093054;28;20036;-77
2022/03/28 06:40:32;;;;;;;29.65;12.98;;;;;;;;;;5075064;28;20889;-78
2022/03/28 06:42:58;;;;;;;20.70;13.18;;;;;;;;;;5081266;28;20035;-78
2022/03/28 06:45:24;;;;;;;23.73;14.75;;;;;;;;;;5064282;28;20085;-77
2022/03/28 06:47:51;;;;;;;20.08;13.27;;;;;;;;;;5078835;28;20077;-77
2022/03/28 06:50:17;;;;;;;18.92;12.75;;;;;;;;;;5079553;28;20035;-77
2022/03/28 06:52:43;;;;;;;21.75;13.68;;;;;;;;;;5079592;28;20418;-77
2022/03/28 06:55:08;;;;;;;22.17;13.20;;;;;;;;;;5062590;28;20047;-77
2022/03/28 06:57:35;;;;;;;20.27;13.15;;;;;;;;;;5076112;28;20039;-77
2022/03/28 07:00:00;;;;;;;20.10;12.88;;;;;;;;;;5088957;28;20439;-77
2022/03/28 07:02:26;;;;;;;19.90;12.68;;;;;;;;;;5079877;28;20039;-77
2022/03/28 07:04:51;;;;;;;22.50;13.95;;;;;;;;;;5115382;27;20118;-77
2022/03/28 07:07:17;;;;;;;17.23;11.88;;;;;;;;;;5080079;28;20073;-77
2022/03/28 07:09:42;;;;;;;17.40;11.80;;;;;;;;;;5080638;28;20101;-77
2022/03/28 07:12:15;;;;;;;17.20;11.77;;;;;;;;;;5097443;28;20039;-77
2022/03/28 07:14:42;;;;;;;17.88;13.00;;;;;;;;;;5077797;28;20059;-77
2022/03/28 07:17:09;;;;;;;16.20;11.52;;;;;;;;;;5076964;28;20064;-77
2022/03/28 07:19:35;;;;;;;18.35;12.25;;;;;;;;;;5077066;28;20044;-76
2022/03/28 07:22:00;;;;;;;19.17;12.52;;;;;;;;;;5093753;28;20410;-77
2022/03/28 07:24:26;;;;;;;16.00;11.93;;;;;;;;;;5109410;28;20114;-76
2022/03/28 07:26:53;;;;;;;15.82;12.43;;;;;;;;;;5097340;28;20054;-77
2022/03/28 07:29:20;;;;;;;16.25;11.25;;;;;;;;;;5097430;28;20046;-76
2022/03/28 07:31:48;;;;;;;18.52;12.82;;;;;;;;;;5079977;28;20501;-76
2022/03/28 07:36:57;;;;;;;23.77;17.00;;;;;;;;;;5092590;28;20084;-76
2022/03/28 07:39:23;;;;;;;21.85;15.45;;;;;;;;;;5105781;28;20522;-76
2022/03/28 07:41:49;;;;;;;29.58;16.85;;;;;;;;;;5085756;28;20032;-76
2022/03/28 07:44:15;;;;;;;25.60;17.38;;;;;;;;;;5076155;28;20146;-76
2022/03/28 07:46:41;;;;;;;27.27;17.50;;;;;;;;;;5062458;28;20027;-77
2022/03/28 07:49:10;;;;;;;21.85;17.02;;;;;;;;;;5060969;28;20047;-77
2022/03/28 07:51:35;;;;;;;21.08;15.02;;;;;;;;;;5079088;28;20035;-76
2022/03/28 07:54:01;;;;;;;22.73;15.98;;;;;;;;;;5076070;28;20096;-76
2022/03/28 07:56:27;;;;;;;22.65;15.38;;;;;;;;;;5074711;28;20028;-76
2022/03/28 07:58:52;;;;;;;21.10;15.23;;;;;;;;;;5094511;28;20050;-77
2022/03/28 08:01:18;;;;;;;22.90;14.48;;;;;;;;;;5112566;28;20044;-76
2022/03/28 08:03:43;;;;;;;17.30;14.27;;;;;;;;;;5113010;28;20410;-77
2022/03/28 08:06:09;;;;;;;20.60;13.85;;;;;;;;;;5078510;28;20054;-76
2022/03/28 08:08:35;;;;;;;18.48;13.98;;;;;;;;;;5095039;28;20414;-76
2022/03/28 08:11:01;;;;;;;19.23;13.55;;;;;;;;;;5074596;28;20526;-77
2022/03/28 08:13:26;;;;;;;17.17;13.23;;;;;;;;;;5111183;28;20106;-76
2022/03/28 08:15:52;;;;;;;17.60;14.18;;;;;;;;;;5078578;28;20412;-77
2022/03/28 08:18:17;;;;;;;18.15;14.05;;;;;;;;;;5094682;28;20144;-76
2022/03/28 08:20:43;;;;;;;19.00;13.70;;;;;;;;;;5095826;28;20039;-76
2022/03/28 08:23:09;;;;;;;21.77;14.80;;;;;;;;;;5092658;28;20071;-77
2022/03/28 08:25:34;;;;;;;18.23;14.10;;;;;;;;;;5058862;28;20036;-77
2022/03/28 08:28:00;;;;;;;19.63;14.38;;;;;;;;;;5092404;28;20032;-77
2022/03/28 08:30:25;;;;;;;17.10;13.63;;;;;;;;;;5075306;28;20040;-77
2022/03/28 08:32:51;;;;;;;17.35;12.77;;;;;;;;;;5077209;28;20032;-77
2022/03/28 08:35:16;;;;;;;20.60;13.55;;;;;;;;;;5081797;28;20032;-77
2022/03/28 08:37:42;;;;;;;17.10;12.45;;;;;;;;;;5058631;28;20040;-76
2022/03/28 08:40:07;;;;;;;17.38;12.55;;;;;;;;;;5082636;28;20028;-77
2022/03/28 08:42:33;;;;;;;19.83;12.30;;;;;;;;;;5075289;28;20044;-77
2022/03/28 08:44:59;;;;;;;18.15;13.15;;;;;;;;;;5074837;28;20529;-77
2022/03/28 08:47:25;;;;;;;16.20;12.00;;;;;;;;;;5075216;28;20047;-76
2022/03/28 08:49:51;;;;;;;16.80;13.50;;;;;;;;;;5075374;28;20096;-76
2022/03/28 08:52:17;;;;;;;15.07;11.85;;;;;;;;;;5091816;28;20500;-77
2022/03/28 08:54:45;;;;;;;17.77;12.60;;;;;;;;;;5095003;28;20036;-76
2022/03/28 08:57:12;;;;;;;14.15;10.60;;;;;;;;;;5095435;28;20027;-77
2022/03/28 08:59:38;;;;;;;15.60;11.30;;;;;;;;;;5074299;28;20057;-77
2022/03/28 09:02:03;;;;;;;14.50;10.35;;;;;;;;;;5074680;28;20040;-77
2022/03/28 09:04:29;;;;;;;14.68;10.48;;;;;;;;;;5057794;28;20104;-77
2022/03/28 09:06:54;;;;;;;14.88;11.27;;;;;;;;;;5091821;28;20449;-76
2022/03/28 09:09:25;;;;;;;15.38;10.18;;;;;;;;;;5074655;28;20441;-77
2022/03/28 09:11:52;;;;;;;14.20;9.90;;;;;;;;;;5059206;28;20111;-77
2022/03/28 09:14:28;;;;;;;13.30;9.70;;;;;;;;;;5100054;28;20043;-77
2022/03/28 09:16:58;;;;;;;13.48;10.23;;;;;;;;;;5094825;28;20092;-77
2022/03/28 09:19:24;;;;;;;14.02;9.57;;;;;;;;;;5093224;28;20096;-77
2022/03/28 09:21:50;;;;;;;14.10;9.55;;;;;;;;;;5057866;28;20039;-77
2022/03/28 09:24:15;;;;;;;14.43;9.50;;;;;;;;;;5090601;28;20042;-77
2022/03/28 09:26:41;;;;;;;13.30;10.27;;;;;;;;;;5094670;28;20040;-77
2022/03/28 09:29:06;;;;;;;15.07;11.00;;;;;;;;;;5065301;28;20059;-77
2022/03/28 09:31:36;;;;;;;15.88;10.73;;;;;;;;;;5074157;28;20402;-77
2022/03/28 09:34:06;;;;;;;15.57;11.32;;;;;;;;;;5074599;28;20107;-77
2022/03/28 09:36:34;;;;;;;18.05;10.57;;;;;;;;;;5074499;28;20039;-77
2022/03/28 09:39:00;;;;;;;16.05;9.98;;;;;;;;;;5099599;28;20040;-77
2022/03/28 09:41:28;;;;;;;16.65;10.38;;;;;;;;;;5074122;28;20146;-77
2022/03/28 09:43:54;;;;;;;18.40;9.85;;;;;;;;;;5090645;28;20074;-77
2022/03/28 09:46:30;;;;;;;13.85;10.32;;;;;;;;;;5073181;28;20092;-77
2022/03/28 09:48:57;;;;;;;13.48;10.05;;;;;;;;;;5108463;28;20447;-77
2022/03/28 09:51:28;;;;;;;16.88;10.55;;;;;;;;;;5061547;28;20153;-77
2022/03/28 09:53:54;;;;;;;13.98;9.73;;;;;;;;;;5069547;28;20040;-77
2022/03/28 09:56:19;;;;;;;16.48;9.25;;;;;;;;;;5087252;28;20043;-76
2022/03/28 09:58:49;;;;;;;15.23;9.93;;;;;;;;;;5085186;28;20486;-77
2022/03/28 10:01:22;;;;;;;15.60;9.85;;;;;;;;;;5090485;28;20043;-77
2022/03/28 10:03:52;;;;;;;16.23;12.45;;;;;;;;;;5090461;28;20029;-77
2022/03/28 10:06:17;;;;;;;22.63;15.55;;;;;;;;;;5075940;28;20035;-77
2022/03/28 10:08:43;;;;;;;20.17;13.43;;;;;;;;;;5077342;28;20038;-76
2022/03/28 10:11:10;;;;;;;16.38;12.52;;;;;;;;;;5076424;28;20122;-77
2022/03/28 10:13:35;;;;;;;15.90;12.18;;;;;;;;;;5091923;28;20038;-77
2022/03/28 10:16:02;;;;;;;31.45;12.77;;;;;;;;;;5076565;28;20035;-76
2022/03/28 10:18:34;;;;;;;19.75;11.48;;;;;;;;;;5093970;28;20043;-77
2022/03/28 10:21:15;;;;;;;22.20;10.77;;;;;;;;;;5094019;28;20044;-77
2022/03/28 10:23:52;;;;;;;19.48;11.15;;;;;;;;;;5110525;28;20110;-77
2022/03/28 10:26:19;;;;;;;21.80;12.10;;;;;;;;;;5112022;28;20038;-77
2022/03/28 10:29:07;;;;;;;20.20;10.65;;;;;;;;;;5093802;28;20035;-77
2022/03/28 10:31:34;;;;;;;24.63;12.00;;;;;;;;;;5110732;28;20032;-77
2022/03/28 10:34:00;;;;;;;23.17;11.02;;;;;;;;;;5092835;28;20402;-77
2022/03/28 10:36:30;;;;;;;17.55;10.90;;;;;;;;;;5093937;28;20036;-77
2022/03/28 10:39:34;;;;;;;21.60;12.23;;;;;;;;;;5093339;28;20485;-77
2022/03/28 10:42:07;;;;;;;16.52;10.15;;;;;;;;;;5110273;28;20038;-77
2022/03/28 10:44:47;;;;;;;17.38;11.48;;;;;;;;;;5111228;28;20028;-77
2022/03/28 10:47:14;;;;;;;18.35;11.23;;;;;;;;;;5094239;28;20096;-77
2022/03/28 10:49:41;;;;;;;16.75;11.15;;;;;;;;;;5077701;28;20059;-77
2022/03/28 10:52:10;;;;;;;16.23;11.30;;;;;;;;;;5076701;28;20527;-77
2022/03/28 10:54:39;;;;;;;15.65;10.93;;;;;;;;;;5076581;28;20032;-77
2022/03/28 10:57:04;;;;;;;19.00;12.75;;;;;;;;;;5072885;28;20040;-77
2022/03/28 10:59:31;;;;;;;16.80;13.57;;;;;;;;;;5061696;28;20405;-77
2022/03/28 11:01:57;;;;;;;21.90;13.60;;;;;;;;;;5081928;28;20028;-77
2022/03/28 11:04:23;;;;;;;19.40;12.63;;;;;;;;;;5093604;28;20039;-77
2022/03/28 11:07:03;;;;;;;19.02;12.18;;;;;;;;;;5111702;28;20524;-77
2022/03/28 11:09:51;;;;;;;16.45;11.18;;;;;;;;;;5094325;28;20103;-77
2022/03/28 11:12:30;;;;;;;18.30;11.77;;;;;;;;;;5094025;28;20084;-77
2022/03/28 11:15:21;;;;;;;18.30;10.70;;;;;;;;;;5089861;28;20089;-77
2022/03/28 11:17:57;;;;;;;18.08;10.85;;;;;;;;;;5093004;28;20107;-77
2022/03/28 11:20:24;;;;;;;15.93;11.10;;;;;;;;;;5090275;28;20101;-77
2022/03/28 11:23:08;;;;;;;16.27;10.90;;;;;;;;;;5092515;28;20025;-77
2022/03/28 11:25:33;;;;;;;15.30;11.65;;;;;;;;;;5096540;28;20046;-77
2022/03/28 11:28:10;;;;;;;14.98;11.07;;;;;;;;;;5115033;28;20036;-77
2022/03/28 11:30:45;;;;;;;16.63;11.43;;;;;;;;;;5098261;28;20114;-77
2022/03/28 11:33:12;;;;;;;14.88;11.13;;;;;;;;;;5078333;28;20020;-76
2022/03/28 11:35:38;;;;;;;15.88;10.48;;;;;;;;;;5076800;28;20440;-77
2022/03/28 11:38:04;;;;;;;15.43;11.25;;;;;;;;;;5059853;28;21136;-77
2022/03/28 11:40:40;;;;;;;16.77;10.38;;;;;;;;;;5070198;28;20040;-76
2022/03/28 11:43:05;;;;;;;18.70;10.38;;;;;;;;;;5060464;28;20089;-77
2022/03/28 11:45:31;;;;;;;20.48;10.38;;;;;;;;;;5069930;28;20160;-77
2022/03/28 11:47:58;;;;;;;19.02;11.40;;;;;;;;;;5079376;28;20110;-77
2022/03/28 11:50:24;;;;;;;17.58;11.55;;;;;;;;;;5079490;28;20119;-77
2022/03/28 11:52:50;;;;;;;15.55;10.48;;;;;;;;;;5076246;28;20032;-77
2022/03/28 11:55:24;;;;;;;16.20;11.55;;;;;;;;;;5059172;28;20071;-77
2022/03/28 12:00:39;;;;;;;16.38;10.02;;;;;;;;;;5105938;28;20043;-77
2022/03/28 12:03:04;;;;;;;16.77;10.65;;;;;;;;;;5096387;28;20039;-77
2022/03/28 12:05:34;;;;;;;16.02;10.95;;;;;;;;;;5096624;28;20031;-78
2022/03/28 12:08:20;;;;;;;14.48;9.32;;;;;;;;;;5096652;28;20034;-77
2022/03/28 12:10:52;;;;;;;13.00;9.10;;;;;;;;;;5113249;28;20467;-77
2022/03/28 12:13:19;;;;;;;13.23;9.55;;;;;;;;;;5079303;28;20076;-77
2022/03/28 12:15:46;;;;;;;14.77;10.15;;;;;;;;;;5079440;28;20055;-77
2022/03/28 12:18:13;;;;;;;14.93;9.82;;;;;;;;;;5096271;28;20485;-77
2022/03/28 12:20:40;;;;;;;13.90;9.88;;;;;;;;;;5096072;28;20143;-77
2022/03/28 12:23:06;;;;;;;13.35;10.70;;;;;;;;;;5092159;28;20028;-77
2022/03/28 12:25:45;;;;;;;16.40;10.82;;;;;;;;;;5058774;28;20047;-77
2022/03/28 12:28:15;;;;;;;15.35;9.95;;;;;;;;;;5059192;28;20051;-77
2022/03/28 12:30:50;;;;;;;18.65;9.98;;;;;;;;;;5059151;28;20040;-77
2022/03/28 12:33:27;;;;;;;12.10;9.20;;;;;;;;;;5075989;28;20564;-77
2022/03/28 12:35:56;;;;;;;13.13;9.32;;;;;;;;;;5058002;28;20409;-77
2022/03/28 12:38:27;;;;;;;15.38;10.05;;;;;;;;;;5075508;28;20043;-77
2022/03/28 12:40:53;;;;;;;18.35;10.32;;;;;;;;;;5076005;28;20516;-77
2022/03/28 12:43:23;;;;;;;14.45;10.20;;;;;;;;;;5075588;28;20506;-77
2022/03/28 12:45:49;;;;;;;14.82;10.50;;;;;;;;;;5076054;28;20040;-77
2022/03/28 12:48:15;;;;;;;20.92;10.95;;;;;;;;;;5091221;28;20513;-77
2022/03/28 12:50:50;;;;;;;26.17;16.10;;;;;;;;;;5092159;28;20040;-77
2022/03/28 12:53:16;;;;;;;26.33;17.75;;;;;;;;;;5075031;28;20398;-76
2022/03/28 12:55:43;;;;;;;27.42;19.10;;;;;;;;;;5091855;28;20036;-76
2022/03/28 12:58:09;;;;;;;27.40;18.90;;;;;;;;;;5084560;28;20036;-77
2022/03/28 13:00:35;;;;;;;26.20;18.67;;;;;;;;;;5075976;28;20051;-77
2022/03/28 13:03:01;;;;;;;29.45;20.88;;;;;;;;;;5078318;28;20547;-77
2022/03/28 13:05:30;;;;;;;28.10;20.30;;;;;;;;;;5095403;28;20074;-77
2022/03/28 13:08:08;;;;;;;24.17;17.70;;;;;;;;;;5078196;28;20032;-77
2022/03/28 13:10:35;;;;;;;28.27;19.50;;;;;;;;;;5095653;28;20404;-77
2022/03/28 13:13:01;;;;;;;26.20;19.60;;;;;;;;;;5095084;28;20076;-76
2022/03/28 13:15:30;;;;;;;26.83;20.27;;;;;;;;;;5078255;28;20512;-77
2022/03/28 13:18:09;;;;;;;26.40;18.52;;;;;;;;;;5094524;28;20032;-77
2022/03/28 13:20:36;;;;;;;23.38;17.50;;;;;;;;;;5111576;28;20055;-76
2022/03/28 13:23:03;;;;;;;27.95;19.02;;;;;;;;;;5091355;28;20563;-76
2022/03/28 13:25:29;;;;;;;25.30;18.70;;;;;;;;;;5074583;28;20040;-76
2022/03/28 13:28:06;;;;;;;25.73;17.85;;;;;;;;;;5074623;28;20402;-77
2022/03/28 13:30:32;;;;;;;23.58;19.25;;;;;;;;;;5059015;28;20028;-76
2022/03/28 13:32:59;;;;;;;24.23;17.75;;;;;;;;;;5091210;28;20501;-76
2022/03/28 13:35:25;;;;;;;24.38;18.42;;;;;;;;;;5074507;28;20032;-77
2022/03/28 13:38:00;;;;;;;25.63;17.20;;;;;;;;;;5091107;28;20099;-77
2022/03/28 13:40:27;;;;;;;21.45;17.17;;;;;;;;;;5094532;28;20109;-76
2022/03/28 13:42:52;;;;;;;21.85;17.00;;;;;;;;;;5094569;28;20054;-77
2022/03/28 13:45:18;;;;;;;23.83;15.73;;;;;;;;;;5094531;28;20509;-77
2022/03/28 13:47:45;;;;;;;25.30;15.98;;;;;;;;;;5093899;28;20035;-78
2022/03/28 13:50:10;;;;;;;23.13;17.50;;;;;;;;;;5077715;28;20044;-78
2022/03/28 13:52:36;;;;;;;21.48;17.02;;;;;;;;;;5094345;28;20039;-77
2022/03/28 13:55:02;;;;;;;22.85;16.85;;;;;;;;;;5094054;28;20039;-77
2022/03/28 13:57:27;;;;;;;23.00;17.42;;;;;;;;;;5060259;28;20034;-77
2022/03/28 13:59:53;;;;;;;25.20;18.77;;;;;;;;;;5111019;28;20445;-77
2022/03/28 14:02:19;;;;;;;27.70;19.90;;;;;;;;;;5094493;28;20043;-78
2022/03/28 14:04:45;;;;;;;24.67;19.40;;;;;;;;;;5077497;28;20035;-79
2022/03/28 14:07:10;;;;;;;24.73;18.35;;;;;;;;;;5060948;28;20084;-80
2022/03/28 14:09:36;;;;;;;25.77;17.80;;;;;;;;;;5093989;28;20486;-78
2022/03/28 14:12:01;;;;;;;25.35;18.88;;;;;;;;;;5076958;28;20055;-78
2022/03/28 14:14:27;;;;;;;23.80;19.13;;;;;;;;;;5094349;28;20035;-78
2022/03/28 14:16:53;;;;;;;23.13;17.25;;;;;;;;;;5059419;28;20084;-77
2022/03/28 14:19:18;;;;;;;30.23;16.25;;;;;;;;;;5072370;28;20036;-77
2022/03/28 14:21:44;;;;;;;25.77;16.90;;;;;;;;;;5073808;28;20096;-79
2022/03/28 14:24:10;;;;;;;23.05;16.40;;;;;;;;;;5049786;28;20092;-78
2022/03/28 14:26:35;;;;;;;19.33;14.25;;;;;;;;;;5073469;28;20050;-79